^^
Meteo Knjazevac Station Historical Data
Daily Summary for January 15, 2021 Units:  Metric    English   Both
Daily Weekly Monthly Yearly Custom
  High: Low: Average:
Temperature: 31.5 °C 10.3 °C 19.9 °C
Dew Point: 16.1 °C 8 °C 11.7 °C
Humidity: 88% 34% 63%
Wind Speed: 14.5km/h 0km/h 2.4km/h
Wind Gust: 24.1km/h - -
Wind- - SW
Pressure: 1020.9 hPa 1017.8 hPa -
Precipitation: 0 mm    
Historical Graphs
 
 
Tabular Data for January 15, 2021
Time Temperature Dew Point Pressure Wind Wind Speed Wind Gust Humidity Rainfall Rate (Hourly) solar Conditions
00:00 15.3 °C 10.3 °C 1019.9 hPa NW 3.2 km/h 4.8 km/h 72% 0 mm 0 W/m2
00:10 15.2 °C 10.2 °C 1019.9 hPa WNW 1.6 km/h 4.8 km/h 72% 0 mm 0 W/m2
00:20 15 °C 10 °C 1019.9 hPa WNW 1.6 km/h 6.4 km/h 72% 0 mm 0 W/m2
00:30 14.8 °C 10 °C 1019.9 hPa WNW 3.2 km/h 8 km/h 73% 0 mm 0 W/m2
00:40 14.6 °C 9.8 °C 1019.9 hPa Calm   8 km/h 73% 0 mm 0 W/m2
00:50 14.3 °C 9.5 °C 1019.9 hPa Calm   3.2 km/h 73% 0 mm 0 W/m2
01:00 14.1 °C 9.6 °C 1019.9 hPa Calm   3.2 km/h 74% 0 mm 0 W/m2
01:10 14 °C 9.4 °C 1019.9 hPa Calm   1.6 km/h 74% 0 mm 0 W/m2
01:20 13.8 °C 9.2 °C 1019.9 hPa Calm   1.6 km/h 74% 0 mm 0 W/m2
01:30 13.7 °C 9.3 °C 1019.9 hPa Calm   3.2 km/h 75% 0 mm 0 W/m2
01:40 13.4 °C 9.1 °C 1019.9 hPa Calm   1.6 km/h 75% 0 mm 0 W/m2
01:50 13.2 °C 9.3 °C 1019.9 hPa Calm   3.2 km/h 77% 0 mm 0 W/m2
02:00 13 °C 9.1 °C 1019.9 hPa Calm   1.6 km/h 77% 0 mm 0 W/m2
02:10 12.9 °C 8.9 °C 1019.9 hPa Calm   3.2 km/h 77% 0 mm 0 W/m2
02:20 12.7 °C 8.9 °C 1019.9 hPa Calm   3.2 km/h 78% 0 mm 0 W/m2
02:30 12.6 °C 8.9 °C 1019.9 hPa Calm   1.6 km/h 78% 0 mm 0 W/m2
02:40 12.4 °C 8.8 °C 1019.9 hPa Calm   3.2 km/h 79% 0 mm 0 W/m2
02:50 12.3 °C 8.8 °C 1020.2 hPa Calm   3.2 km/h 79% 0 mm 0 W/m2
03:00 12.3 °C 8.8 °C 1020.2 hPa Calm   3.2 km/h 79% 0 mm 0 W/m2
03:10 12.2 °C 8.8 °C 1020.2 hPa Calm   1.6 km/h 80% 0 mm 0 W/m2
03:20 12.1 °C 8.6 °C 1019.9 hPa Calm   1.6 km/h 79% 0 mm 0 W/m2
03:30 12 °C 8.7 °C 1020.2 hPa Calm   3.2 km/h 80% 0 mm 0 W/m2
03:40 11.9 °C 8.6 °C 1020.2 hPa Calm   1.6 km/h 80% 0 mm 0 W/m2
03:50 11.8 °C 8.4 °C 1020.2 hPa Calm   3.2 km/h 80% 0 mm 0 W/m2
04:00 11.8 °C 8.7 °C 1020.2 hPa Calm   3.2 km/h 81% 0 mm 0 W/m2
04:10 11.6 °C 8.4 °C 1020.2 hPa Calm   3.2 km/h 81% 0 mm 0 W/m2
04:20 11.5 °C 8.3 °C 1020.2 hPa NW 1.6 km/h 3.2 km/h 81% 0 mm 0 W/m2
04:30 11.4 °C 8.6 °C 1020.2 hPa West 3.2 km/h 3.2 km/h 83% 0 mm 0 W/m2
04:40 11.3 °C 8.5 °C 1020.2 hPa West 1.6 km/h 3.2 km/h 83% 0 mm 0 W/m2
04:50 11.2 °C 8.6 °C 1020.2 hPa WNW 1.6 km/h 6.4 km/h 84% 0 mm 0 W/m2
05:00 11.2 °C 8.6 °C 1020.2 hPa WNW 1.6 km/h 4.8 km/h 84% 0 mm 0 W/m2
05:10 11 °C 8.4 °C 1020.2 hPa WSW 3.2 km/h 4.8 km/h 84% 0 mm 0 W/m2
05:20 10.9 °C 8.3 °C 1020.5 hPa WSW 3.2 km/h 4.8 km/h 84% 0 mm 0 W/m2
05:30 10.8 °C 8.4 °C 1020.5 hPa WNW 1.6 km/h 3.2 km/h 85% 0 mm 0 W/m2
05:40 10.8 °C 8.4 °C 1020.5 hPa Calm   3.2 km/h 85% 0 mm 0 W/m2
05:50 10.7 °C 8.3 °C 1020.5 hPa NW 1.6 km/h 3.2 km/h 85% 0 mm 0 W/m2
06:00 10.7 °C 8.3 °C 1020.5 hPa WNW 1.6 km/h 3.2 km/h 85% 0 mm 0 W/m2
06:10 10.5 °C 8.1 °C 1020.5 hPa Calm   1.6 km/h 85% 0 mm 4 W/m2
06:20 10.4 °C 8 °C 1020.5 hPa WSW 1.6 km/h 3.2 km/h 85% 0 mm 10 W/m2
06:30 10.3 °C 8.1 °C 1020.5 hPa West 1.6 km/h 6.4 km/h 86% 0 mm 19 W/m2
06:40 10.4 °C 8.5 °C 1020.9 hPa West 3.2 km/h 9.7 km/h 88% 0 mm 30 W/m2
06:50 10.5 °C 8.3 °C 1020.9 hPa NNW 1.6 km/h 3.2 km/h 86% 0 mm 41 W/m2
07:00 10.6 °C 8.7 °C 1020.9 hPa West 3.2 km/h 4.8 km/h 88% 0 mm 66 W/m2
07:10 10.6 °C 8.3 °C 1020.9 hPa West 3.2 km/h 4.8 km/h 86% 0 mm 92 W/m2
07:20 10.8 °C 8.9 °C 1020.9 hPa WNW 1.6 km/h 6.4 km/h 88% 0 mm 117 W/m2
07:30 11 °C 9.1 °C 1020.9 hPa WNW 1.6 km/h 3.2 km/h 88% 0 mm 146 W/m2
07:40 11.3 °C 9.4 °C 1020.9 hPa Calm   3.2 km/h 88% 0 mm 176 W/m2
07:50 11.6 °C 9.7 °C 1020.9 hPa Calm   1.6 km/h 88% 0 mm 203 W/m2
08:00 12.1 °C 10.2 °C 1020.9 hPa Calm   3.2 km/h 88% 0 mm 237 W/m2
08:10 12.6 °C 10.3 °C 1020.9 hPa West 1.6 km/h 3.2 km/h 86% 0 mm 262 W/m2
08:20 13.2 °C 10.7 °C 1020.9 hPa Calm   4.8 km/h 85% 0 mm 318 W/m2
08:30 14.1 °C 11.4 °C 1020.9 hPa SW 1.6 km/h 3.2 km/h 84% 0 mm 364 W/m2
08:40 15.5 °C 12.1 °C 1020.9 hPa SW 1.6 km/h 3.2 km/h 80% 0 mm 337 W/m2
08:50 16.7 °C 12.8 °C 1020.9 hPa West 1.6 km/h 4.8 km/h 78% 0 mm 338 W/m2
09:00 17.8 °C 12.9 °C 1020.9 hPa NW 3.2 km/h 8 km/h 73% 0 mm 410 W/m2
09:10 18.8 °C 13.2 °C 1020.9 hPa Calm   4.8 km/h 70% 0 mm 213 W/m2
09:20 19.7 °C 13.6 °C 1020.9 hPa West 1.6 km/h 3.2 km/h 68% 0 mm 368 W/m2
09:30 20.6 °C 13.6 °C 1020.9 hPa SW 1.6 km/h 3.2 km/h 64% 0 mm 445 W/m2
09:40 21.4 °C 14.1 °C 1020.5 hPa SW 1.6 km/h 3.2 km/h 63% 0 mm 558 W/m2
09:50 22.3 °C 14.2 °C 1020.5 hPa SW 1.6 km/h 3.2 km/h 60% 0 mm 582 W/m2
10:00 23.1 °C 14.7 °C 1020.5 hPa Calm   3.2 km/h 59% 0 mm 390 W/m2
10:10 23.7 °C 14.7 °C 1020.5 hPa WSW 1.6 km/h 4.8 km/h 57% 0 mm 625 W/m2
10:20 24.2 °C 14.6 °C 1020.5 hPa West 1.6 km/h 6.4 km/h 55% 0 mm 644 W/m2
10:30 24.7 °C 14.4 °C 1020.5 hPa WSW 1.6 km/h 4.8 km/h 53% 0 mm 244 W/m2
10:40 24.8 °C 14.6 °C 1020.5 hPa Calm   3.2 km/h 53% 0 mm 217 W/m2
10:50 25.5 °C 14.9 °C 1020.2 hPa Calm   3.2 km/h 52% 0 mm 695 W/m2
11:00 26.4 °C 15.1 °C 1020.2 hPa ESE 1.6 km/h 6.4 km/h 50% 0 mm 709 W/m2
11:10 26.8 °C 14.9 °C 1020.2 hPa SSE 1.6 km/h 6.4 km/h 48% 0 mm 722 W/m2
11:20 27.4 °C 15.7 °C 1020.2 hPa ENE 3.2 km/h 8 km/h 49% 0 mm 733 W/m2
11:30 27.9 °C 15.9 °C 1019.9 hPa ENE 3.2 km/h 9.7 km/h 48% 0 mm 742 W/m2
11:40 28.5 °C 16.1 °C 1019.9 hPa NNE 3.2 km/h 9.7 km/h 47% 0 mm 750 W/m2
11:50 29 °C 15.9 °C 1019.9 hPa North 4.8 km/h 9.7 km/h 45% 0 mm 757 W/m2
12:00 29.4 °C 15.9 °C 1019.5 hPa WNW 3.2 km/h 8 km/h 44% 0 mm 761 W/m2
12:10 29.6 °C 14.6 °C 1019.5 hPa East 4.8 km/h 11.3 km/h 40% 0 mm 764 W/m2
12:20 29.7 °C 15.8 °C 1019.5 hPa East 3.2 km/h 11.3 km/h 43% 0 mm 766 W/m2
12:30 29.9 °C 14.8 °C 1019.2 hPa WNW 3.2 km/h 9.7 km/h 40% 0 mm 766 W/m2
12:40 30.3 °C 14.8 °C 1019.2 hPa NNE 4.8 km/h 14.5 km/h 39% 0 mm 764 W/m2
12:50 30.4 °C 14.9 °C 1019.2 hPa ENE 3.2 km/h 11.3 km/h 39% 0 mm 760 W/m2
13:00 30.6 °C 14.7 °C 1019.2 hPa SSW 3.2 km/h 9.7 km/h 38% 0 mm 755 W/m2
13:10 30.8 °C 14.8 °C 1018.8 hPa SW 4.8 km/h 9.7 km/h 38% 0 mm 748 W/m2
13:20 31.1 °C 14.7 °C 1018.8 hPa SSW 3.2 km/h 11.3 km/h 37% 0 mm 740 W/m2
13:30 31.1 °C 13.8 °C 1018.8 hPa SW 3.2 km/h 11.3 km/h 35% 0 mm 730 W/m2
13:40 31.3 °C 14.9 °C 1018.5 hPa West 3.2 km/h 12.9 km/h 37% 0 mm 719 W/m2
13:50 31.4 °C 14.1 °C 1018.5 hPa West 3.2 km/h 11.3 km/h 35% 0 mm 706 W/m2
14:00 31.4 °C 14.1 °C 1018.2 hPa West 8 km/h 11.3 km/h 35% 0 mm 691 W/m2
14:10 31.5 °C 14.2 °C 1018.2 hPa West 3.2 km/h 11.3 km/h 35% 0 mm 675 W/m2
14:20 31.5 °C 15.1 °C 1017.8 hPa WSW 3.2 km/h 9.7 km/h 37% 0 mm 658 W/m2
14:30 31.5 °C 13.7 °C 1017.8 hPa West 1.6 km/h 8 km/h 34% 0 mm 640 W/m2
14:40 31.5 °C 14.2 °C 1017.8 hPa West 3.2 km/h 11.3 km/h 35% 0 mm 139 W/m2
14:50 30.9 °C 13.7 °C 1017.8 hPa West 3.2 km/h 12.9 km/h 35% 0 mm 153 W/m2
15:00 30.5 °C 13.3 °C 1017.8 hPa Calm   9.7 km/h 35% 0 mm 576 W/m2
15:10 30.3 °C 14 °C 1017.8 hPa Calm   8 km/h 37% 0 mm 123 W/m2
15:20 29.9 °C 13.6 °C 1017.8 hPa NW 4.8 km/h 9.7 km/h 37% 0 mm 137 W/m2
15:30 29.5 °C 14.1 °C 1017.8 hPa West 9.7 km/h 14.5 km/h 39% 0 mm 140 W/m2
15:40 29.2 °C 13.8 °C 1017.8 hPa WNW 8 km/h 16.1 km/h 39% 0 mm 117 W/m2
15:50 28.9 °C 14.7 °C 1017.8 hPa WNW 8 km/h 14.5 km/h 42% 0 mm 241 W/m2
16:00 28.9 °C 13.2 °C 1018.2 hPa WNW 12.9 km/h 20.9 km/h 38% 0 mm 420 W/m2
16:10 28.5 °C 11.6 °C 1017.8 hPa West 14.5 km/h 24.1 km/h 35% 0 mm 177 W/m2
16:20 28.1 °C 12.1 °C 1018.2 hPa WNW 8 km/h 22.5 km/h 37% 0 mm 242 W/m2
16:30 28.1 °C 12.1 °C 1017.8 hPa WNW 3.2 km/h 12.9 km/h 37% 0 mm 219 W/m2
16:40 28 °C 11.9 °C 1017.8 hPa NW 3.2 km/h 9.7 km/h 37% 0 mm 302 W/m2
16:50 28 °C 12.3 °C 1017.8 hPa WNW 3.2 km/h 11.3 km/h 38% 0 mm 265 W/m2
17:00 28 °C 12.3 °C 1017.8 hPa West 3.2 km/h 9.7 km/h 38% 0 mm 242 W/m2
17:10 28 °C 12.4 °C 1018.2 hPa South 1.6 km/h 8 km/h 38% 0 mm 157 W/m2
17:20 28.1 °C 12.4 °C 1018.2 hPa WSW 4.8 km/h 9.7 km/h 38% 0 mm 143 W/m2
17:30 28 °C 11.9 °C 1018.2 hPa SW 4.8 km/h 11.3 km/h 37% 0 mm 143 W/m2
17:40 27.9 °C 11.8 °C 1017.8 hPa SW 1.6 km/h 8 km/h 37% 0 mm 109 W/m2
17:50 27.7 °C 12.9 °C 1017.8 hPa South 1.6 km/h 8 km/h 40% 0 mm 84 W/m2
18:00 27.5 °C 14.2 °C 1017.8 hPa ESE 4.8 km/h 9.7 km/h 44% 0 mm 67 W/m2
18:10 26.8 °C 15.5 °C 1017.8 hPa East 8 km/h 14.5 km/h 50% 0 mm 46 W/m2
18:20 26.1 °C 15.8 °C 1017.8 hPa ESE 4.8 km/h 11.3 km/h 53% 0 mm 23 W/m2
18:30 25.5 °C 15.8 °C 1017.8 hPa SE 4.8 km/h 12.9 km/h 55% 0 mm 10 W/m2
18:40 25 °C 15.9 °C 1018.2 hPa ESE 4.8 km/h 11.3 km/h 57% 0 mm 4 W/m2
18:50 24.6 °C 16.1 °C 1018.2 hPa ESE 3.2 km/h 8 km/h 59% 0 mm 0 W/m2
19:00 24.2 °C 15.7 °C 1018.5 hPa ENE 4.8 km/h 16.1 km/h 59% 0 mm 0 W/m2
19:10 23.8 °C 15.3 °C 1018.5 hPa ENE 3.2 km/h 11.3 km/h 59% 0 mm 0 W/m2
19:20 23.4 °C 15.7 °C 1018.5 hPa NNE 8 km/h 9.7 km/h 62% 0 mm 0 W/m2
19:30 23 °C 15.3 °C 1018.5 hPa NE 8 km/h 12.9 km/h 62% 0 mm 0 W/m2
19:40 22.6 °C 14.9 °C 1018.5 hPa ENE 1.6 km/h 9.7 km/h 62% 0 mm 0 W/m2
19:50 22.1 °C 13.7 °C 1018.5 hPa Calm   3.2 km/h 59% 0 mm 0 W/m2
20:00 21.4 °C 13.1 °C 1018.8 hPa Calm   3.2 km/h 59% 0 mm 0 W/m2
20:10 20.8 °C 12.5 °C 1018.8 hPa WSW 1.6 km/h 3.2 km/h 59% 0 mm 0 W/m2
20:20 20.1 °C 12.1 °C 1018.8 hPa Calm   4.8 km/h 60% 0 mm 0 W/m2
20:30 19.6 °C 12.1 °C 1018.8 hPa West 1.6 km/h 3.2 km/h 62% 0 mm 0 W/m2
20:40 19.1 °C 11.9 °C 1018.8 hPa WSW 3.2 km/h 6.4 km/h 63% 0 mm 0 W/m2
20:50 18.5 °C 11.3 °C 1018.8 hPa WSW 3.2 km/h 6.4 km/h 63% 0 mm 0 W/m2
21:00 18.1 °C 11.2 °C 1018.8 hPa WSW 3.2 km/h 8 km/h 64% 0 mm 0 W/m2
21:10 17.8 °C 11.1 °C 1019.2 hPa WNW 1.6 km/h 4.8 km/h 65% 0 mm 0 W/m2
21:20 17.5 °C 11.3 °C 1019.2 hPa WNW 1.6 km/h 3.2 km/h 67% 0 mm 0 W/m2
21:30 17 °C 10.4 °C 1019.2 hPa WSW 1.6 km/h 3.2 km/h 65% 0 mm 0 W/m2
21:40 16.6 °C 10.4 °C 1019.2 hPa WSW 1.6 km/h 4.8 km/h 67% 0 mm 0 W/m2
22:00 16.3 °C 10.6 °C 1019.2 hPa Calm   3.2 km/h 69% 0 mm 0 W/m2
22:10 16.1 °C 10.4 °C 1019.2 hPa Calm   3.2 km/h 69% 0 mm 0 W/m2
22:20 15.8 °C 10.1 °C 1019.2 hPa Calm   3.2 km/h 69% 0 mm 0 W/m2
22:30 15.4 °C 9.7 °C 1019.2 hPa Calm   3.2 km/h 69% 0 mm 0 W/m2
22:40 15.1 °C 9.7 °C 1019.2 hPa West 1.6 km/h 1.6 km/h 70% 0 mm 0 W/m2
22:50 14.7 °C 9.7 °C 1019.5 hPa West 1.6 km/h 4.8 km/h 72% 0 mm 0 W/m2
23:00 14.4 °C 9.8 °C 1019.5 hPa West 4.8 km/h 11.3 km/h 74% 0 mm 0 W/m2
23:10 14.4 °C 9.8 °C 1019.5 hPa WSW 1.6 km/h 9.7 km/h 74% 0 mm 0 W/m2
23:20 14.2 °C 9.6 °C 1019.5 hPa West 3.2 km/h 9.7 km/h 74% 0 mm 0 W/m2
23:30 14.1 °C 9.6 °C 1019.5 hPa WNW 3.2 km/h 8 km/h 74% 0 mm 0 W/m2
23:40 14.1 °C 9.7 °C 1019.5 hPa WNW 1.6 km/h 8 km/h 75% 0 mm 0 W/m2
23:50 13.8 °C 9.5 °C 1019.5 hPa West 1.6 km/h 4.8 km/h 75% 0 mm 0 W/m2
Knjazevac, Serbia
Compliments of Weather Underground - 2 mb